sensor_id;sensor_type;location;lat;lon;timestamp;P1;durP1;ratioP1;P2;durP2;ratioP2
65706;SDS011;52423;43.512;5.220;2022-10-13T00:01:09;9.30;;;7.93;;
65706;SDS011;52423;43.512;5.220;2022-10-13T00:03:37;13.00;;;8.20;;
65706;SDS011;52423;43.512;5.220;2022-10-13T00:06:04;10.38;;;8.18;;
65706;SDS011;52423;43.512;5.220;2022-10-13T00:08:31;14.02;;;8.27;;
65706;SDS011;52423;43.512;5.220;2022-10-13T00:10:57;10.45;;;8.48;;
65706;SDS011;52423;43.512;5.220;2022-10-13T00:13:24;15.07;;;8.70;;
65706;SDS011;52423;43.512;5.220;2022-10-13T00:15:50;16.30;;;9.13;;
65706;SDS011;52423;43.512;5.220;2022-10-13T00:18:16;11.52;;;8.45;;
65706;SDS011;52423;43.512;5.220;2022-10-13T00:20:46;14.68;;;8.48;;
65706;SDS011;52423;43.512;5.220;2022-10-13T00:23:13;10.57;;;8.15;;
65706;SDS011;52423;43.512;5.220;2022-10-13T00:25:44;8.82;;;7.93;;
65706;SDS011;52423;43.512;5.220;2022-10-13T00:28:11;9.75;;;7.88;;
65706;SDS011;52423;43.512;5.220;2022-10-13T00:30:37;11.23;;;7.32;;
65706;SDS011;52423;43.512;5.220;2022-10-13T00:33:03;10.95;;;8.13;;
65706;SDS011;52423;43.512;5.220;2022-10-13T00:35:29;9.93;;;8.43;;
65706;SDS011;52423;43.512;5.220;2022-10-13T00:37:54;14.45;;;9.10;;
65706;SDS011;52423;43.512;5.220;2022-10-13T00:40:20;16.15;;;9.02;;
65706;SDS011;52423;43.512;5.220;2022-10-13T00:42:45;15.30;;;8.07;;
65706;SDS011;52423;43.512;5.220;2022-10-13T00:45:20;10.32;;;8.57;;
65706;SDS011;52423;43.512;5.220;2022-10-13T00:47:48;12.90;;;8.18;;
65706;SDS011;52423;43.512;5.220;2022-10-13T00:50:18;16.58;;;8.90;;
65706;SDS011;52423;43.512;5.220;2022-10-13T00:52:47;15.95;;;9.38;;
65706;SDS011;52423;43.512;5.220;2022-10-13T00:55:15;13.68;;;8.18;;
65706;SDS011;52423;43.512;5.220;2022-10-13T00:57:44;13.10;;;8.82;;
65706;SDS011;52423;43.512;5.220;2022-10-13T01:00:12;11.23;;;8.48;;
65706;SDS011;52423;43.512;5.220;2022-10-13T01:02:38;11.70;;;7.93;;
65706;SDS011;52423;43.512;5.220;2022-10-13T01:05:04;12.00;;;8.27;;
65706;SDS011;52423;43.512;5.220;2022-10-13T01:07:31;14.27;;;8.90;;
65706;SDS011;52423;43.512;5.220;2022-10-13T01:09:58;12.88;;;8.55;;
65706;SDS011;52423;43.512;5.220;2022-10-13T01:12:33;21.42;;;9.35;;
65706;SDS011;52423;43.512;5.220;2022-10-13T01:30:57;12.75;;;8.30;;
65706;SDS011;52423;43.512;5.220;2022-10-13T01:33:40;11.88;;;8.10;;
65706;SDS011;52423;43.512;5.220;2022-10-13T01:41:25;11.15;;;8.90;;
65706;SDS011;52423;43.512;5.220;2022-10-13T01:44:10;14.93;;;8.95;;
65706;SDS011;52423;43.512;5.220;2022-10-13T01:46:53;15.38;;;8.27;;
65706;SDS011;52423;43.512;5.220;2022-10-13T01:49:21;12.77;;;9.00;;
65706;SDS011;52423;43.512;5.220;2022-10-13T01:51:51;9.70;;;7.65;;
65706;SDS011;52423;43.512;5.220;2022-10-13T01:54:18;9.50;;;8.52;;
65706;SDS011;52423;43.512;5.220;2022-10-13T01:56:50;15.73;;;9.45;;
65706;SDS011;52423;43.512;5.220;2022-10-13T01:59:19;14.98;;;8.07;;
65706;SDS011;52423;43.512;5.220;2022-10-13T02:07:37;9.45;;;8.52;;
65706;SDS011;52423;43.512;5.220;2022-10-13T02:10:33;12.73;;;8.55;;
65706;SDS011;52423;43.512;5.220;2022-10-13T02:13:16;12.73;;;9.02;;
65706;SDS011;52423;43.512;5.220;2022-10-13T02:15:47;9.85;;;8.27;;
65706;SDS011;52423;43.512;5.220;2022-10-13T02:18:15;10.90;;;8.95;;
65706;SDS011;52423;43.512;5.220;2022-10-13T02:20:44;12.63;;;8.45;;
65706;SDS011;52423;43.512;5.220;2022-10-13T02:23:11;9.57;;;8.57;;
65706;SDS011;52423;43.512;5.220;2022-10-13T02:25:39;12.93;;;9.23;;
65706;SDS011;52423;43.512;5.220;2022-10-13T02:28:05;9.77;;;8.45;;
65706;SDS011;52423;43.512;5.220;2022-10-13T02:30:32;13.52;;;8.98;;
65706;SDS011;52423;43.512;5.220;2022-10-13T02:33:01;14.15;;;8.85;;
65706;SDS011;52423;43.512;5.220;2022-10-13T02:35:28;14.40;;;8.90;;
65706;SDS011;52423;43.512;5.220;2022-10-13T02:37:55;11.38;;;8.63;;
65706;SDS011;52423;43.512;5.220;2022-10-13T02:40:20;14.23;;;8.45;;
65706;SDS011;52423;43.512;5.220;2022-10-13T02:42:46;9.77;;;8.10;;
65706;SDS011;52423;43.512;5.220;2022-10-13T02:45:11;10.52;;;8.23;;
65706;SDS011;52423;43.512;5.220;2022-10-13T02:47:36;14.18;;;8.88;;
65706;SDS011;52423;43.512;5.220;2022-10-13T02:50:02;10.45;;;9.15;;
65706;SDS011;52423;43.512;5.220;2022-10-13T02:52:28;16.00;;;8.45;;
65706;SDS011;52423;43.512;5.220;2022-10-13T02:54:54;11.48;;;8.32;;
65706;SDS011;52423;43.512;5.220;2022-10-13T02:57:19;11.75;;;8.57;;
65706;SDS011;52423;43.512;5.220;2022-10-13T02:59:44;9.43;;;8.18;;
65706;SDS011;52423;43.512;5.220;2022-10-13T03:02:10;10.07;;;8.30;;
65706;SDS011;52423;43.512;5.220;2022-10-13T03:04:35;11.07;;;8.88;;
65706;SDS011;52423;43.512;5.220;2022-10-13T03:07:00;20.00;;;8.82;;
65706;SDS011;52423;43.512;5.220;2022-10-13T03:09:26;14.68;;;9.40;;
65706;SDS011;52423;43.512;5.220;2022-10-13T03:11:51;14.18;;;8.55;;
65706;SDS011;52423;43.512;5.220;2022-10-13T03:14:17;13.07;;;8.27;;
65706;SDS011;52423;43.512;5.220;2022-10-13T03:16:42;12.77;;;8.40;;
65706;SDS011;52423;43.512;5.220;2022-10-13T03:19:08;11.15;;;8.07;;
65706;SDS011;52423;43.512;5.220;2022-10-13T03:21:33;9.95;;;8.10;;
65706;SDS011;52423;43.512;5.220;2022-10-13T03:23:59;8.70;;;7.80;;
65706;SDS011;52423;43.512;5.220;2022-10-13T03:26:24;10.25;;;7.70;;
65706;SDS011;52423;43.512;5.220;2022-10-13T03:28:50;11.75;;;7.88;;
65706;SDS011;52423;43.512;5.220;2022-10-13T03:31:16;9.93;;;7.80;;
65706;SDS011;52423;43.512;5.220;2022-10-13T03:33:42;12.50;;;7.85;;
65706;SDS011;52423;43.512;5.220;2022-10-13T03:36:09;9.88;;;7.50;;
65706;SDS011;52423;43.512;5.220;2022-10-13T03:38:35;10.77;;;6.93;;
65706;SDS011;52423;43.512;5.220;2022-10-13T03:41:07;7.80;;;7.03;;
65706;SDS011;52423;43.512;5.220;2022-10-13T03:43:35;8.65;;;6.93;;
65706;SDS011;52423;43.512;5.220;2022-10-13T03:46:01;10.15;;;7.40;;
65706;SDS011;52423;43.512;5.220;2022-10-13T03:48:28;8.55;;;7.30;;
65706;SDS011;52423;43.512;5.220;2022-10-13T03:50:54;15.27;;;7.57;;
65706;SDS011;52423;43.512;5.220;2022-10-13T03:53:20;10.77;;;7.28;;
65706;SDS011;52423;43.512;5.220;2022-10-13T03:55:49;7.78;;;7.00;;
65706;SDS011;52423;43.512;5.220;2022-10-13T03:58:19;12.95;;;7.32;;
65706;SDS011;52423;43.512;5.220;2022-10-13T04:00:45;7.65;;;6.95;;
65706;SDS011;52423;43.512;5.220;2022-10-13T04:03:11;9.35;;;6.88;;
65706;SDS011;52423;43.512;5.220;2022-10-13T04:05:36;13.32;;;7.40;;
65706;SDS011;52423;43.512;5.220;2022-10-13T04:08:02;8.70;;;6.82;;
65706;SDS011;52423;43.512;5.220;2022-10-13T04:10:28;10.32;;;7.25;;
65706;SDS011;52423;43.512;5.220;2022-10-13T04:12:53;15.70;;;7.20;;
65706;SDS011;52423;43.512;5.220;2022-10-13T04:15:19;8.25;;;7.07;;
65706;SDS011;52423;43.512;5.220;2022-10-13T04:17:44;11.55;;;6.88;;
65706;SDS011;52423;43.512;5.220;2022-10-13T04:20:09;11.38;;;6.53;;
65706;SDS011;52423;43.512;5.220;2022-10-13T04:22:35;7.03;;;6.43;;
65706;SDS011;52423;43.512;5.220;2022-10-13T04:25:01;7.68;;;6.90;;
65706;SDS011;52423;43.512;5.220;2022-10-13T04:27:26;9.10;;;6.50;;
65706;SDS011;52423;43.512;5.220;2022-10-13T04:29:52;9.55;;;6.80;;
65706;SDS011;52423;43.512;5.220;2022-10-13T04:32:17;6.70;;;6.10;;
65706;SDS011;52423;43.512;5.220;2022-10-13T04:34:42;8.43;;;6.97;;
65706;SDS011;52423;43.512;5.220;2022-10-13T04:37:08;7.47;;;6.65;;
65706;SDS011;52423;43.512;5.220;2022-10-13T04:39:33;8.50;;;6.45;;
65706;SDS011;52423;43.512;5.220;2022-10-13T04:41:59;13.18;;;6.72;;
65706;SDS011;52423;43.512;5.220;2022-10-13T04:44:24;8.20;;;5.82;;
65706;SDS011;52423;43.512;5.220;2022-10-13T04:46:50;9.50;;;6.22;;
65706;SDS011;52423;43.512;5.220;2022-10-13T04:49:15;8.73;;;6.28;;
65706;SDS011;52423;43.512;5.220;2022-10-13T04:51:41;11.05;;;6.25;;
65706;SDS011;52423;43.512;5.220;2022-10-13T04:54:06;8.02;;;6.15;;
65706;SDS011;52423;43.512;5.220;2022-10-13T04:56:32;8.30;;;5.75;;
65706;SDS011;52423;43.512;5.220;2022-10-13T04:58:57;7.10;;;5.85;;
65706;SDS011;52423;43.512;5.220;2022-10-13T05:01:23;8.38;;;6.75;;
65706;SDS011;52423;43.512;5.220;2022-10-13T05:03:50;9.15;;;6.38;;
65706;SDS011;52423;43.512;5.220;2022-10-13T05:06:22;6.60;;;5.90;;
65706;SDS011;52423;43.512;5.220;2022-10-13T05:08:49;9.27;;;6.18;;
65706;SDS011;52423;43.512;5.220;2022-10-13T05:11:15;10.60;;;6.85;;
65706;SDS011;52423;43.512;5.220;2022-10-13T05:13:41;7.65;;;5.82;;
65706;SDS011;52423;43.512;5.220;2022-10-13T05:16:10;8.98;;;6.32;;
65706;SDS011;52423;43.512;5.220;2022-10-13T05:18:37;10.20;;;6.07;;
65706;SDS011;52423;43.512;5.220;2022-10-13T05:21:10;10.15;;;6.60;;
65706;SDS011;52423;43.512;5.220;2022-10-13T05:23:38;11.73;;;7.03;;
65706;SDS011;52423;43.512;5.220;2022-10-13T05:26:05;9.27;;;6.45;;
65706;SDS011;52423;43.512;5.220;2022-10-13T05:28:33;9.75;;;6.25;;
65706;SDS011;52423;43.512;5.220;2022-10-13T05:31:08;9.80;;;6.35;;
65706;SDS011;52423;43.512;5.220;2022-10-13T05:33:37;11.32;;;6.57;;
65706;SDS011;52423;43.512;5.220;2022-10-13T05:36:12;16.08;;;6.38;;
65706;SDS011;52423;43.512;5.220;2022-10-13T05:38:40;13.07;;;6.25;;
65706;SDS011;52423;43.512;5.220;2022-10-13T05:41:06;7.45;;;6.30;;
65706;SDS011;52423;43.512;5.220;2022-10-13T05:43:33;9.95;;;6.63;;
65706;SDS011;52423;43.512;5.220;2022-10-13T05:45:59;8.52;;;6.45;;
65706;SDS011;52423;43.512;5.220;2022-10-13T05:48:25;9.02;;;6.13;;
65706;SDS011;52423;43.512;5.220;2022-10-13T05:50:51;10.30;;;6.10;;
65706;SDS011;52423;43.512;5.220;2022-10-13T05:53:18;10.95;;;6.30;;
65706;SDS011;52423;43.512;5.220;2022-10-13T05:55:43;11.38;;;6.22;;
65706;SDS011;52423;43.512;5.220;2022-10-13T05:58:09;11.07;;;6.40;;
65706;SDS011;52423;43.512;5.220;2022-10-13T06:00:35;10.23;;;6.60;;
65706;SDS011;52423;43.512;5.220;2022-10-13T06:03:05;10.88;;;5.95;;
65706;SDS011;52423;43.512;5.220;2022-10-13T06:05:34;10.07;;;5.90;;
65706;SDS011;52423;43.512;5.220;2022-10-13T06:08:00;10.80;;;6.47;;
65706;SDS011;52423;43.512;5.220;2022-10-13T06:10:26;9.07;;;5.82;;
65706;SDS011;52423;43.512;5.220;2022-10-13T06:12:52;7.95;;;5.75;;
65706;SDS011;52423;43.512;5.220;2022-10-13T06:15:17;11.07;;;5.82;;
65706;SDS011;52423;43.512;5.220;2022-10-13T06:17:43;12.35;;;5.90;;
65706;SDS011;52423;43.512;5.220;2022-10-13T06:20:08;10.38;;;5.60;;
65706;SDS011;52423;43.512;5.220;2022-10-13T06:22:36;14.02;;;5.90;;
65706;SDS011;52423;43.512;5.220;2022-10-13T06:25:02;8.35;;;5.78;;
65706;SDS011;52423;43.512;5.220;2022-10-13T06:27:29;12.38;;;5.72;;
65706;SDS011;52423;43.512;5.220;2022-10-13T06:29:55;7.07;;;5.47;;
65706;SDS011;52423;43.512;5.220;2022-10-13T06:32:20;10.23;;;5.72;;
65706;SDS011;52423;43.512;5.220;2022-10-13T06:34:46;11.43;;;5.40;;
65706;SDS011;52423;43.512;5.220;2022-10-13T06:37:11;12.60;;;5.50;;
65706;SDS011;52423;43.512;5.220;2022-10-13T06:39:36;7.75;;;5.60;;
65706;SDS011;52423;43.512;5.220;2022-10-13T06:42:02;12.88;;;6.00;;
65706;SDS011;52423;43.512;5.220;2022-10-13T06:44:29;8.50;;;6.18;;
65706;SDS011;52423;43.512;5.220;2022-10-13T06:46:55;6.60;;;5.55;;
65706;SDS011;52423;43.512;5.220;2022-10-13T06:49:22;10.75;;;5.53;;
65706;SDS011;52423;43.512;5.220;2022-10-13T06:51:47;7.35;;;5.40;;
65706;SDS011;52423;43.512;5.220;2022-10-13T06:54:13;6.50;;;5.43;;
65706;SDS011;52423;43.512;5.220;2022-10-13T06:56:39;9.80;;;6.07;;
65706;SDS011;52423;43.512;5.220;2022-10-13T06:59:04;9.93;;;5.57;;
65706;SDS011;52423;43.512;5.220;2022-10-13T07:01:29;7.13;;;5.70;;
65706;SDS011;52423;43.512;5.220;2022-10-13T07:03:55;7.13;;;5.70;;
65706;SDS011;52423;43.512;5.220;2022-10-13T07:06:20;9.57;;;6.00;;
65706;SDS011;52423;43.512;5.220;2022-10-13T07:08:46;8.48;;;5.78;;
65706;SDS011;52423;43.512;5.220;2022-10-13T07:11:12;13.73;;;5.38;;
65706;SDS011;52423;43.512;5.220;2022-10-13T07:13:39;11.15;;;5.50;;
65706;SDS011;52423;43.512;5.220;2022-10-13T07:16:05;5.70;;;5.13;;
65706;SDS011;52423;43.512;5.220;2022-10-13T07:18:31;6.00;;;5.45;;
65706;SDS011;52423;43.512;5.220;2022-10-13T07:20:57;9.88;;;5.40;;
65706;SDS011;52423;43.512;5.220;2022-10-13T07:23:23;12.35;;;5.30;;
65706;SDS011;52423;43.512;5.220;2022-10-13T07:25:49;7.57;;;5.53;;
65706;SDS011;52423;43.512;5.220;2022-10-13T07:28:15;14.00;;;5.38;;
65706;SDS011;52423;43.512;5.220;2022-10-13T07:30:40;9.80;;;5.20;;
65706;SDS011;52423;43.512;5.220;2022-10-13T07:33:05;7.18;;;5.53;;
65706;SDS011;52423;43.512;5.220;2022-10-13T07:35:31;7.18;;;5.55;;
65706;SDS011;52423;43.512;5.220;2022-10-13T07:37:56;8.00;;;5.80;;
65706;SDS011;52423;43.512;5.220;2022-10-13T07:40:22;52.35;;;8.45;;
65706;SDS011;52423;43.512;5.220;2022-10-13T07:42:48;28.50;;;6.70;;
65706;SDS011;52423;43.512;5.220;2022-10-13T07:45:13;43.13;;;8.32;;
65706;SDS011;52423;43.512;5.220;2022-10-13T07:47:40;29.45;;;7.68;;
65706;SDS011;52423;43.512;5.220;2022-10-13T07:50:05;16.27;;;5.72;;
65706;SDS011;52423;43.512;5.220;2022-10-13T07:52:33;9.52;;;5.00;;
65706;SDS011;52423;43.512;5.220;2022-10-13T07:54:59;39.90;;;7.00;;
65706;SDS011;52423;43.512;5.220;2022-10-13T07:57:25;10.57;;;5.18;;
65706;SDS011;52423;43.512;5.220;2022-10-13T07:59:51;9.10;;;5.25;;
65706;SDS011;52423;43.512;5.220;2022-10-13T08:02:17;10.82;;;5.63;;
65706;SDS011;52423;43.512;5.220;2022-10-13T08:04:42;5.40;;;4.90;;
65706;SDS011;52423;43.512;5.220;2022-10-13T08:07:07;8.60;;;4.90;;
65706;SDS011;52423;43.512;5.220;2022-10-13T08:09:33;16.75;;;6.00;;
65706;SDS011;52423;43.512;5.220;2022-10-13T08:11:58;14.07;;;5.35;;
65706;SDS011;52423;43.512;5.220;2022-10-13T08:14:24;11.77;;;5.15;;
65706;SDS011;52423;43.512;5.220;2022-10-13T08:16:49;6.38;;;4.90;;
65706;SDS011;52423;43.512;5.220;2022-10-13T08:19:15;10.50;;;4.95;;
65706;SDS011;52423;43.512;5.220;2022-10-13T08:21:41;28.25;;;6.82;;
65706;SDS011;52423;43.512;5.220;2022-10-13T08:24:11;29.55;;;6.30;;
65706;SDS011;52423;43.512;5.220;2022-10-13T08:26:38;15.43;;;5.43;;
65706;SDS011;52423;43.512;5.220;2022-10-13T08:29:04;6.32;;;4.78;;
65706;SDS011;52423;43.512;5.220;2022-10-13T08:31:29;5.00;;;4.60;;
65706;SDS011;52423;43.512;5.220;2022-10-13T08:33:55;20.50;;;5.88;;
65706;SDS011;52423;43.512;5.220;2022-10-13T08:36:20;7.97;;;4.63;;
65706;SDS011;52423;43.512;5.220;2022-10-13T08:38:47;8.32;;;4.30;;
65706;SDS011;52423;43.512;5.220;2022-10-13T08:41:19;9.40;;;4.38;;
65706;SDS011;52423;43.512;5.220;2022-10-13T08:43:48;8.48;;;4.57;;
65706;SDS011;52423;43.512;5.220;2022-10-13T08:46:58;9.70;;;5.15;;
65706;SDS011;52423;43.512;5.220;2022-10-13T08:49:10;9.25;;;4.82;;
65706;SDS011;52423;43.512;5.220;2022-10-13T08:51:39;6.50;;;4.60;;
65706;SDS011;52423;43.512;5.220;2022-10-13T08:54:04;9.13;;;4.80;;
65706;SDS011;52423;43.512;5.220;2022-10-13T08:56:30;7.05;;;5.32;;
65706;SDS011;52423;43.512;5.220;2022-10-13T08:58:58;9.43;;;4.63;;
65706;SDS011;52423;43.512;5.220;2022-10-13T09:01:32;13.27;;;5.20;;
65706;SDS011;52423;43.512;5.220;2022-10-13T09:09:41;6.53;;;4.43;;
65706;SDS011;52423;43.512;5.220;2022-10-13T09:12:08;6.68;;;4.85;;
65706;SDS011;52423;43.512;5.220;2022-10-13T09:14:37;10.55;;;4.90;;
65706;SDS011;52423;43.512;5.220;2022-10-13T09:17:23;8.32;;;5.00;;
65706;SDS011;52423;43.512;5.220;2022-10-13T09:19:57;9.85;;;4.82;;
65706;SDS011;52423;43.512;5.220;2022-10-13T09:22:28;8.65;;;4.85;;
65706;SDS011;52423;43.512;5.220;2022-10-13T09:25:17;4.97;;;4.50;;
65706;SDS011;52423;43.512;5.220;2022-10-13T09:27:49;9.35;;;4.78;;
65706;SDS011;52423;43.512;5.220;2022-10-13T09:35:36;11.57;;;5.45;;
65706;SDS011;52423;43.512;5.220;2022-10-13T09:40:29;10.63;;;5.47;;
65706;SDS011;52423;43.512;5.220;2022-10-13T09:42:56;7.03;;;5.10;;
65706;SDS011;52423;43.512;5.220;2022-10-13T09:45:24;13.90;;;6.60;;
65706;SDS011;52423;43.512;5.220;2022-10-13T09:48:02;16.80;;;5.85;;
65706;SDS011;52423;43.512;5.220;2022-10-13T09:50:30;9.98;;;5.50;;
65706;SDS011;52423;43.512;5.220;2022-10-13T10:01:31;22.85;;;6.22;;
65706;SDS011;52423;43.512;5.220;2022-10-13T10:04:05;12.75;;;6.32;;
65706;SDS011;52423;43.512;5.220;2022-10-13T10:06:33;16.83;;;7.15;;
65706;SDS011;52423;43.512;5.220;2022-10-13T10:11:42;12.77;;;8.45;;
65706;SDS011;52423;43.512;5.220;2022-10-13T10:14:23;13.63;;;9.00;;
65706;SDS011;52423;43.512;5.220;2022-10-13T10:17:14;14.07;;;8.85;;
65706;SDS011;52423;43.512;5.220;2022-10-13T10:28:08;7.63;;;6.28;;
65706;SDS011;52423;43.512;5.220;2022-10-13T10:36:12;11.77;;;6.00;;
65706;SDS011;52423;43.512;5.220;2022-10-13T10:38:52;7.38;;;5.50;;
65706;SDS011;52423;43.512;5.220;2022-10-13T10:44:09;10.00;;;6.07;;
65706;SDS011;52423;43.512;5.220;2022-10-13T10:46:53;16.95;;;6.72;;
65706;SDS011;52423;43.512;5.220;2022-10-13T10:51:58;11.48;;;6.80;;
65706;SDS011;52423;43.512;5.220;2022-10-13T10:57:27;19.13;;;7.15;;
65706;SDS011;52423;43.512;5.220;2022-10-13T11:00:04;11.88;;;5.78;;
65706;SDS011;52423;43.512;5.220;2022-10-13T11:05:17;10.43;;;5.75;;
65706;SDS011;52423;43.512;5.220;2022-10-13T11:15:11;7.32;;;4.93;;
65706;SDS011;52423;43.512;5.220;2022-10-13T11:17:40;6.50;;;4.50;;
65706;SDS011;52423;43.512;5.220;2022-10-13T11:28:42;9.43;;;5.22;;
65706;SDS011;52423;43.512;5.220;2022-10-13T11:30:47;9.02;;;4.47;;
65706;SDS011;52423;43.512;5.220;2022-10-13T11:37:00;7.15;;;5.47;;
65706;SDS011;52423;43.512;5.220;2022-10-13T11:39:36;9.98;;;5.03;;
65706;SDS011;52423;43.512;5.220;2022-10-13T11:54:03;8.05;;;5.15;;
65706;SDS011;52423;43.512;5.220;2022-10-13T11:58:59;5.50;;;4.97;;
65706;SDS011;52423;43.512;5.220;2022-10-13T12:01:24;10.65;;;5.13;;
65706;SDS011;52423;43.512;5.220;2022-10-13T12:03:49;10.75;;;5.47;;
65706;SDS011;52423;43.512;5.220;2022-10-13T12:08:43;8.57;;;4.60;;
65706;SDS011;52423;43.512;5.220;2022-10-13T12:11:13;7.47;;;5.03;;
65706;SDS011;52423;43.512;5.220;2022-10-13T12:13:48;7.53;;;4.28;;
65706;SDS011;52423;43.512;5.220;2022-10-13T12:16:14;11.32;;;5.18;;
65706;SDS011;52423;43.512;5.220;2022-10-13T12:18:40;11.50;;;4.47;;
65706;SDS011;52423;43.512;5.220;2022-10-13T12:21:15;10.90;;;5.70;;
65706;SDS011;52423;43.512;5.220;2022-10-13T12:23:41;10.63;;;5.45;;
65706;SDS011;52423;43.512;5.220;2022-10-13T12:26:07;11.88;;;5.15;;
65706;SDS011;52423;43.512;5.220;2022-10-13T12:31:17;6.97;;;5.13;;
65706;SDS011;52423;43.512;5.220;2022-10-13T12:33:50;7.93;;;4.80;;
65706;SDS011;52423;43.512;5.220;2022-10-13T12:36:21;7.32;;;4.80;;
65706;SDS011;52423;43.512;5.220;2022-10-13T12:38:51;10.17;;;4.50;;
65706;SDS011;52423;43.512;5.220;2022-10-13T12:41:23;10.43;;;4.78;;
65706;SDS011;52423;43.512;5.220;2022-10-13T12:43:51;11.18;;;4.55;;
65706;SDS011;52423;43.512;5.220;2022-10-13T12:49:11;8.05;;;4.30;;
65706;SDS011;52423;43.512;5.220;2022-10-13T12:52:11;8.05;;;4.65;;
65706;SDS011;52423;43.512;5.220;2022-10-13T12:54:50;10.93;;;4.78;;
65706;SDS011;52423;43.512;5.220;2022-10-13T12:59:46;7.72;;;4.95;;
65706;SDS011;52423;43.512;5.220;2022-10-13T13:02:19;8.57;;;4.80;;
65706;SDS011;52423;43.512;5.220;2022-10-13T13:04:48;6.88;;;3.90;;
65706;SDS011;52423;43.512;5.220;2022-10-13T13:07:25;12.02;;;4.35;;
65706;SDS011;52423;43.512;5.220;2022-10-13T13:12:32;5.03;;;4.25;;
65706;SDS011;52423;43.512;5.220;2022-10-13T13:17:44;8.88;;;3.72;;
65706;SDS011;52423;43.512;5.220;2022-10-13T13:22:53;7.28;;;3.35;;
65706;SDS011;52423;43.512;5.220;2022-10-13T13:25:19;9.07;;;4.05;;
65706;SDS011;52423;43.512;5.220;2022-10-13T13:27:44;8.80;;;3.50;;
65706;SDS011;52423;43.512;5.220;2022-10-13T13:30:10;9.52;;;3.20;;
65706;SDS011;52423;43.512;5.220;2022-10-13T13:32:37;11.68;;;3.70;;
65706;SDS011;52423;43.512;5.220;2022-10-13T13:35:03;11.45;;;3.90;;
65706;SDS011;52423;43.512;5.220;2022-10-13T13:37:30;10.35;;;3.75;;
65706;SDS011;52423;43.512;5.220;2022-10-13T13:39:58;14.10;;;3.78;;
65706;SDS011;52423;43.512;5.220;2022-10-13T13:42:25;14.50;;;3.95;;
65706;SDS011;52423;43.512;5.220;2022-10-13T13:44:51;8.50;;;4.18;;
65706;SDS011;52423;43.512;5.220;2022-10-13T13:47:18;8.68;;;3.55;;
65706;SDS011;52423;43.512;5.220;2022-10-13T13:49:46;7.80;;;3.65;;
65706;SDS011;52423;43.512;5.220;2022-10-13T13:52:12;7.75;;;4.05;;
65706;SDS011;52423;43.512;5.220;2022-10-13T13:54:38;8.40;;;3.88;;
65706;SDS011;52423;43.512;5.220;2022-10-13T13:57:03;8.68;;;3.95;;
65706;SDS011;52423;43.512;5.220;2022-10-13T13:59:29;8.98;;;3.47;;
65706;SDS011;52423;43.512;5.220;2022-10-13T14:01:54;5.90;;;3.40;;
65706;SDS011;52423;43.512;5.220;2022-10-13T14:04:19;8.85;;;3.88;;
65706;SDS011;52423;43.512;5.220;2022-10-13T14:06:45;10.07;;;3.88;;
65706;SDS011;52423;43.512;5.220;2022-10-13T14:09:10;11.48;;;3.65;;
65706;SDS011;52423;43.512;5.220;2022-10-13T14:11:36;10.07;;;4.10;;
65706;SDS011;52423;43.512;5.220;2022-10-13T14:14:01;8.80;;;3.92;;
65706;SDS011;52423;43.512;5.220;2022-10-13T14:16:26;6.38;;;3.42;;
65706;SDS011;52423;43.512;5.220;2022-10-13T14:18:52;9.98;;;3.85;;
65706;SDS011;52423;43.512;5.220;2022-10-13T14:21:20;5.85;;;4.00;;
65706;SDS011;52423;43.512;5.220;2022-10-13T14:23:45;13.88;;;4.03;;
65706;SDS011;52423;43.512;5.220;2022-10-13T14:26:11;8.90;;;3.85;;
65706;SDS011;52423;43.512;5.220;2022-10-13T14:28:40;14.82;;;3.75;;
65706;SDS011;52423;43.512;5.220;2022-10-13T14:31:07;6.70;;;3.33;;
65706;SDS011;52423;43.512;5.220;2022-10-13T14:33:32;5.90;;;3.30;;
65706;SDS011;52423;43.512;5.220;2022-10-13T14:36:01;12.07;;;3.67;;
65706;SDS011;52423;43.512;5.220;2022-10-13T14:38:31;10.10;;;3.13;;
65706;SDS011;52423;43.512;5.220;2022-10-13T14:41:00;10.60;;;3.60;;
65706;SDS011;52423;43.512;5.220;2022-10-13T14:43:27;7.53;;;3.83;;
65706;SDS011;52423;43.512;5.220;2022-10-13T14:45:54;12.30;;;4.22;;
65706;SDS011;52423;43.512;5.220;2022-10-13T14:48:20;8.73;;;3.70;;
65706;SDS011;52423;43.512;5.220;2022-10-13T14:50:46;5.47;;;2.88;;
65706;SDS011;52423;43.512;5.220;2022-10-13T14:53:11;5.13;;;3.25;;
65706;SDS011;52423;43.512;5.220;2022-10-13T14:55:41;8.48;;;3.40;;
65706;SDS011;52423;43.512;5.220;2022-10-13T14:58:07;8.55;;;3.30;;
65706;SDS011;52423;43.512;5.220;2022-10-13T15:00:33;12.10;;;3.65;;
65706;SDS011;52423;43.512;5.220;2022-10-13T15:02:58;13.27;;;4.18;;
65706;SDS011;52423;43.512;5.220;2022-10-13T15:05:24;14.18;;;3.33;;
65706;SDS011;52423;43.512;5.220;2022-10-13T15:07:49;9.02;;;3.45;;
65706;SDS011;52423;43.512;5.220;2022-10-13T15:10:14;9.07;;;3.55;;
65706;SDS011;52423;43.512;5.220;2022-10-13T15:12:40;16.38;;;3.63;;
65706;SDS011;52423;43.512;5.220;2022-10-13T15:15:05;8.82;;;3.10;;
65706;SDS011;52423;43.512;5.220;2022-10-13T15:17:31;7.80;;;3.30;;
65706;SDS011;52423;43.512;5.220;2022-10-13T15:19:57;13.10;;;3.95;;
65706;SDS011;52423;43.512;5.220;2022-10-13T15:22:22;14.20;;;4.25;;
65706;SDS011;52423;43.512;5.220;2022-10-13T15:24:48;9.82;;;3.92;;
65706;SDS011;52423;43.512;5.220;2022-10-13T15:27:13;9.00;;;3.58;;
65706;SDS011;52423;43.512;5.220;2022-10-13T15:29:39;10.35;;;3.75;;
65706;SDS011;52423;43.512;5.220;2022-10-13T15:32:08;24.40;;;4.70;;
65706;SDS011;52423;43.512;5.220;2022-10-13T15:34:41;22.85;;;5.20;;
65706;SDS011;52423;43.512;5.220;2022-10-13T15:37:07;15.05;;;3.65;;
65706;SDS011;52423;43.512;5.220;2022-10-13T15:39:32;10.85;;;3.72;;
65706;SDS011;52423;43.512;5.220;2022-10-13T15:41:58;6.72;;;3.88;;
65706;SDS011;52423;43.512;5.220;2022-10-13T15:44:23;11.77;;;4.40;;
65706;SDS011;52423;43.512;5.220;2022-10-13T15:46:49;5.32;;;3.40;;
65706;SDS011;52423;43.512;5.220;2022-10-13T15:49:15;9.10;;;4.63;;
65706;SDS011;52423;43.512;5.220;2022-10-13T15:51:40;9.23;;;4.30;;
65706;SDS011;52423;43.512;5.220;2022-10-13T15:54:06;10.80;;;5.05;;
65706;SDS011;52423;43.512;5.220;2022-10-13T15:56:31;10.50;;;5.03;;
65706;SDS011;52423;43.512;5.220;2022-10-13T15:58:56;14.05;;;5.10;;
65706;SDS011;52423;43.512;5.220;2022-10-13T16:01:22;27.40;;;9.93;;
65706;SDS011;52423;43.512;5.220;2022-10-13T16:03:47;29.50;;;10.45;;
65706;SDS011;52423;43.512;5.220;2022-10-13T16:06:17;32.55;;;9.95;;
65706;SDS011;52423;43.512;5.220;2022-10-13T16:08:44;19.27;;;6.13;;
65706;SDS011;52423;43.512;5.220;2022-10-13T16:11:11;11.50;;;6.18;;
65706;SDS011;52423;43.512;5.220;2022-10-13T16:13:40;17.20;;;5.10;;
65706;SDS011;52423;43.512;5.220;2022-10-13T16:16:09;21.42;;;5.97;;
65706;SDS011;52423;43.512;5.220;2022-10-13T16:18:35;26.70;;;7.18;;
65706;SDS011;52423;43.512;5.220;2022-10-13T16:21:11;17.95;;;7.18;;
65706;SDS011;52423;43.512;5.220;2022-10-13T16:23:38;15.07;;;5.88;;
65706;SDS011;52423;43.512;5.220;2022-10-13T16:26:04;11.88;;;6.05;;
65706;SDS011;52423;43.512;5.220;2022-10-13T16:28:30;20.13;;;6.85;;
65706;SDS011;52423;43.512;5.220;2022-10-13T16:30:55;22.05;;;8.45;;
65706;SDS011;52423;43.512;5.220;2022-10-13T16:33:21;19.27;;;7.38;;
65706;SDS011;52423;43.512;5.220;2022-10-13T16:35:46;15.10;;;6.15;;
65706;SDS011;52423;43.512;5.220;2022-10-13T16:38:11;18.27;;;6.85;;
65706;SDS011;52423;43.512;5.220;2022-10-13T16:40:37;14.95;;;6.55;;
65706;SDS011;52423;43.512;5.220;2022-10-13T16:43:03;19.88;;;7.15;;
65706;SDS011;52423;43.512;5.220;2022-10-13T16:45:32;9.98;;;6.03;;
65706;SDS011;52423;43.512;5.220;2022-10-13T16:47:57;16.45;;;6.63;;
65706;SDS011;52423;43.512;5.220;2022-10-13T16:50:22;24.55;;;6.80;;
65706;SDS011;52423;43.512;5.220;2022-10-13T16:52:48;21.83;;;7.15;;